This is the latest recevied weather packets stored in our database for station/object OK2BOZ-1. If no packets are shown the sender has not sent any weather packets the latest 10 day(s).
| Time | Temp. | Humidity | Pressure | Rain* | Wind** | Luminosity | Snow |
|---|---|---|---|---|---|---|---|
| 1777355748 | 12.78° C | 51% | 1020.9 hPa | - | - | - | - |
| 1777355119 | 10.56° C | 55% | 1020.9 hPa | - | - | - | - |
| 1777354805 | 10.56° C | 54% | 1020.9 hPa | - | - | - | - |
| 1777354492 | 10.56° C | 54% | 1020.9 hPa | - | - | - | - |
| 1777354177 | 10° C | 56% | 1021 hPa | - | - | - | - |
| 1777353863 | 9.44° C | 54% | 1020.9 hPa | - | - | - | - |
| 1777353548 | 10.56° C | 51% | 1021 hPa | - | - | - | - |
| 1777353234 | 10.56° C | 53% | 1020.8 hPa | - | - | - | - |
| 1777352920 | 10° C | 55% | 1020.7 hPa | - | - | - | - |
| 1777352606 | 10° C | 55% | 1020.7 hPa | - | - | - | - |
| 1777352293 | 10° C | 59% | 1020.8 hPa | - | - | - | - |
| 1777351978 | 8.89° C | 64% | 1020.8 hPa | - | - | - | - |
| 1777351664 | 7.78° C | 68% | 1020.8 hPa | - | - | - | - |
| 1777351001 | 6.67° C | 78% | 1020.6 hPa | - | - | - | - |
| 1777350687 | 5.56° C | 84% | 1020.5 hPa | - | - | - | - |
| 1777350356 | 4.44° C | 88% | 1020.4 hPa | - | - | - | - |
| 1777350024 | 3.89° C | 94% | 1020.4 hPa | - | - | - | - |
| 1777349693 | 2.78° C | 97% | 1020.3 hPa | - | - | - | - |
| 1777349361 | 2.22° C | 98% | 1020.3 hPa | - | - | - | - |
| 1777349029 | 1.67° C | 98% | 1020.3 hPa | - | - | - | - |
| 1777348698 | 1.67° C | 98% | 1020.2 hPa | - | - | - | - |
| 1777348367 | 1.67° C | 95% | 1020.2 hPa | - | - | - | - |
| 1777340221 | 2.78° C | 85% | 1020.2 hPa | - | - | - | - |
* Rain since midnight (hover to see other rain measurements)
** Current wind speed in m/s (hover to see current wind gust speed)